Time;durP1;ratioP1;P1;durP2;ratioP2;P2;SDS_P1;SDS_P2;PMS_P1;PMS_P2;Temp;Humidity;BMP_temperature;BMP_pressure;BME280_temperature;BME280_humidity;BME280_pressure;Samples;Min_cycle;Max_cycle;Signal;HPM_P1;HPM_P2
2023/10/31 00:00:42;;;;;;;23.00;11.70;;;;;;;13.62;100.00;100050.92;88410;281;138133;-71
2023/10/31 00:02:44;;;;;;;17.90;10.90;;;;;;;13.62;100.00;100048.09;88489;274;25127;-75
2023/10/31 00:04:46;;;;;;;18.00;11.50;;;;;;;13.62;100.00;100043.47;88340;278;138999;-76
2023/10/31 00:06:48;;;;;;;16.00;10.60;;;;;;;13.62;100.00;100043.30;88514;281;22541;-75
2023/10/31 00:08:50;;;;;;;16.90;11.70;;;;;;;13.60;100.00;100039.77;88775;281;137325;-72
2023/10/31 00:10:51;;;;;;;21.30;11.50;;;;;;;13.60;100.00;100037.56;88525;281;22798;-72
2023/10/31 00:12:53;;;;;;;15.50;10.80;;;;;;;13.59;100.00;100038.38;88356;275;137551;-75
2023/10/31 00:14:56;;;;;;;16.50;10.80;;;;;;;13.57;100.00;100036.33;88431;282;22532;-73
2023/10/31 00:16:58;;;;;;;15.80;10.40;;;;;;;13.54;100.00;100036.11;88320;275;137602;-69
2023/10/31 00:19:01;;;;;;;18.30;11.30;;;;;;;13.50;100.00;100037.06;88857;274;22566;-75
2023/10/31 00:21:04;;;;;;;19.10;12.60;;;;;;;13.48;100.00;100032.96;88372;273;137509;-72
2023/10/31 00:23:05;;;;;;;26.00;12.40;;;;;;;13.45;100.00;100031.16;88515;281;22546;-74
2023/10/31 00:25:08;;;;;;;16.70;11.00;;;;;;;13.42;100.00;100029.24;88263;275;137449;-75
2023/10/31 00:27:12;;;;;;;16.70;11.10;;;;;;;13.38;100.00;100028.91;88396;282;22543;-72
2023/10/31 00:29:14;;;;;;;17.40;10.40;;;;;;;13.36;100.00;100022.53;88328;278;139058;-71
2023/10/31 00:31:16;;;;;;;18.80;11.60;;;;;;;13.33;100.00;100026.98;88441;282;22638;-74
2023/10/31 00:33:17;;;;;;;20.60;12.40;;;;;;;13.30;100.00;100023.12;88276;282;137216;-75
2023/10/31 00:35:19;;;;;;;21.60;12.10;;;;;;;13.28;100.00;100016.82;88506;282;22634;-69
2023/10/31 00:37:21;;;;;;;17.60;11.20;;;;;;;13.25;100.00;100011.68;88421;282;136974;-72
2023/10/31 00:39:25;;;;;;;17.50;12.30;;;;;;;13.21;100.00;100009.64;88483;277;22583;-74
2023/10/31 00:41:27;;;;;;;22.60;14.00;;;;;;;13.18;100.00;100010.11;88242;282;138069;-72
2023/10/31 00:43:29;;;;;;;18.40;12.00;;;;;;;13.16;100.00;100007.77;88592;273;22539;-73
2023/10/31 00:45:31;;;;;;;16.50;11.70;;;;;;;13.13;100.00;100010.26;88273;275;137807;-70
2023/10/31 00:47:34;;;;;;;21.30;12.60;;;;;;;13.11;100.00;100006.61;88403;274;22536;-71
2023/10/31 00:49:35;;;;;;;20.50;11.90;;;;;;;13.10;100.00;100004.09;88395;282;138251;-72
2023/10/31 00:51:37;;;;;;;15.00;11.00;;;;;;;13.09;100.00;100000.52;88621;280;22531;-73
2023/10/31 00:53:39;;;;;;;19.30;12.40;;;;;;;13.07;100.00;99999.59;88289;275;138831;-71
2023/10/31 00:55:41;;;;;;;16.20;11.80;;;;;;;13.03;100.00;99999.69;88267;276;22657;-75
2023/10/31 00:57:43;;;;;;;20.30;12.70;;;;;;;13.01;100.00;100000.67;88378;279;137963;-72
2023/10/31 00:59:46;;;;;;;18.00;11.60;;;;;;;13.00;100.00;100005.41;88457;273;22527;-72
2023/10/31 01:01:47;;;;;;;17.70;12.60;;;;;;;12.99;100.00;100005.30;88360;281;137463;-71
2023/10/31 01:03:49;;;;;;;18.10;12.50;;;;;;;12.97;100.00;100006.83;88461;282;25351;-73
2023/10/31 01:05:51;;;;;;;18.30;11.60;;;;;;;12.93;100.00;100004.55;88389;277;137574;-66
2023/10/31 01:07:54;;;;;;;24.80;13.80;;;;;;;12.88;100.00;100004.23;88509;273;22609;-72
2023/10/31 01:09:56;;;;;;;20.30;11.40;;;;;;;12.84;100.00;100004.82;88512;281;137809;-73
2023/10/31 01:11:58;;;;;;;20.30;12.20;;;;;;;12.81;100.00;100004.96;88437;282;25176;-75
2023/10/31 01:13:59;;;;;;;22.00;14.10;;;;;;;12.77;100.00;100007.19;88333;282;137453;-72
2023/10/31 01:16:01;;;;;;;17.40;12.60;;;;;;;12.76;100.00;100005.55;88472;274;23650;-74
2023/10/31 01:18:03;;;;;;;17.70;12.40;;;;;;;12.76;100.00;100003.78;88530;279;22541;-73
2023/10/31 01:20:07;;;;;;;17.90;12.70;;;;;;;12.77;100.00;100003.86;88525;273;139483;-65
2023/10/31 01:22:08;;;;;;;19.90;11.70;;;;;;;12.69;100.00;99994.74;88614;282;24022;-72
2023/10/31 01:24:10;;;;;;;19.90;11.30;;;;;;;12.74;100.00;100001.36;88425;279;138236;-70
2023/10/31 01:26:12;;;;;;;20.60;12.50;;;;;;;12.72;100.00;100007.41;88529;282;22541;-74
2023/10/31 01:28:14;;;;;;;22.40;13.80;;;;;;;12.69;100.00;100016.15;88718;282;138609;-76
2023/10/31 01:30:16;;;;;;;19.40;13.40;;;;;;;12.67;100.00;100016.60;88474;282;25283;-73
2023/10/31 01:32:18;;;;;;;18.80;13.00;;;;;;;12.64;100.00;100022.15;88641;278;138994;-74
2023/10/31 01:34:23;;;;;;;16.50;11.70;;;;;;;12.61;100.00;100016.65;88471;277;22540;-63
2023/10/31 01:36:26;;;;;;;18.70;12.40;;;;;;;12.57;100.00;100013.45;88438;274;137274;-74
2023/10/31 01:38:28;;;;;;;16.40;12.00;;;;;;;12.53;100.00;100014.45;88372;275;22761;-72
2023/10/31 01:40:31;;;;;;;20.30;12.10;;;;;;;12.49;100.00;100011.79;88364;274;137596;-74
2023/10/31 01:42:33;;;;;;;18.00;11.70;;;;;;;12.44;100.00;100008.98;88435;274;25083;-75
2023/10/31 01:44:35;;;;;;;16.60;12.30;;;;;;;12.40;100.00;100003.36;88346;273;137432;-74
2023/10/31 01:46:36;;;;;;;19.40;12.00;;;;;;;12.35;100.00;100008.68;88507;280;24212;-73
2023/10/31 01:48:38;;;;;;;14.90;11.20;;;;;;;12.31;100.00;100011.94;88394;277;137166;-73
2023/10/31 01:50:40;;;;;;;17.00;11.60;;;;;;;12.28;100.00;100009.79;88429;275;25112;-71
2023/10/31 01:52:42;;;;;;;19.30;12.00;;;;;;;12.24;100.00;100009.58;88302;280;137542;-73
2023/10/31 01:54:44;;;;;;;16.00;12.10;;;;;;;12.21;100.00;100008.91;88453;282;23751;-71
2023/10/31 01:56:50;;;;;;;19.40;12.10;;;;;;;12.18;100.00;100013.75;88378;281;137586;-71
2023/10/31 01:58:52;;;;;;;16.90;11.80;;;;;;;12.15;100.00;100010.77;88466;283;23993;-66
2023/10/31 02:00:55;;;;;;;15.30;11.40;;;;;;;12.13;100.00;100009.54;88674;281;138522;-73
2023/10/31 02:02:58;;;;;;;18.10;12.80;;;;;;;12.11;100.00;100014.79;88610;281;25124;-71
2023/10/31 02:05:00;;;;;;;18.90;12.60;;;;;;;12.08;100.00;100014.38;88805;273;137611;-73
2023/10/31 02:07:02;;;;;;;14.90;11.90;;;;;;;12.07;100.00;100011.95;88935;275;22464;-73
2023/10/31 02:09:04;;;;;;;18.90;11.90;;;;;;;12.09;100.00;100010.52;88547;274;137513;-72
2023/10/31 02:11:09;;;;;;;17.80;12.20;;;;;;;12.10;100.00;100015.62;88548;282;24179;-70
2023/10/31 02:13:15;;;;;;;21.20;12.00;;;;;;;12.08;100.00;100017.42;88824;281;138853;-74
2023/10/31 02:15:17;;;;;;;22.20;12.60;;;;;;;12.05;100.00;100020.59;88617;281;24025;-72
2023/10/31 02:17:19;;;;;;;22.00;13.50;;;;;;;12.03;100.00;100026.09;88407;275;138432;-73
2023/10/31 02:19:21;;;;;;;19.40;11.10;;;;;;;12.03;100.00;100027.12;88561;274;22561;-74
2023/10/31 02:21:26;;;;;;;17.80;12.20;;;;;;;12.03;100.00;100026.45;88646;281;138812;-65
2023/10/31 02:23:28;;;;;;;20.00;12.20;;;;;;;12.02;100.00;100024.00;88679;274;25080;-70
2023/10/31 02:25:30;;;;;;;16.90;11.80;;;;;;;11.98;100.00;100030.20;88374;275;137311;-69
2023/10/31 02:27:32;;;;;;;17.20;12.60;;;;;;;11.90;100.00;100028.55;88705;282;23871;-70
2023/10/31 02:29:34;;;;;;;19.40;11.80;;;;;;;11.84;100.00;100025.23;88612;274;137629;-68
2023/10/31 02:31:35;;;;;;;18.60;12.70;;;;;;;11.81;100.00;100023.16;88564;282;25217;-70
2023/10/31 02:33:38;;;;;;;15.60;11.80;;;;;;;11.78;100.00;100029.38;88674;281;138821;-70
2023/10/31 02:35:40;;;;;;;20.20;12.90;;;;;;;11.74;100.00;100024.72;88685;273;22536;-71
2023/10/31 02:37:46;;;;;;;18.20;12.00;;;;;;;11.71;100.00;100015.45;88467;273;137542;-69
2023/10/31 02:39:47;;;;;;;18.50;12.20;;;;;;;11.68;100.00;100013.59;88420;279;22545;-73
2023/10/31 02:41:49;;;;;;;19.10;12.40;;;;;;;11.68;100.00;100013.30;88507;281;137683;-69
2023/10/31 02:43:54;;;;;;;17.50;11.70;;;;;;;11.66;100.00;100021.19;88461;278;22530;-73
2023/10/31 02:45:56;;;;;;;19.40;12.60;;;;;;;11.64;100.00;100020.97;89779;282;137097;-74
2023/10/31 02:47:58;;;;;;;18.10;11.50;;;;;;;11.62;100.00;100019.62;88650;275;22676;-71
2023/10/31 02:50:00;;;;;;;17.80;11.30;;;;;;;11.59;100.00;100015.34;88369;282;138612;-77
2023/10/31 02:52:03;;;;;;;18.20;12.00;;;;;;;11.55;100.00;100014.92;88604;281;25211;-76
2023/10/31 02:54:05;;;;;;;21.90;12.30;;;;;;;11.51;100.00;100009.50;88703;282;24075;-77
2023/10/31 02:56:08;;;;;;;17.30;12.30;;;;;;;11.47;100.00;100013.63;88440;282;138886;-79
2023/10/31 02:58:10;;;;;;;19.70;12.70;;;;;;;11.45;100.00;100013.30;88529;283;23738;-79
2023/10/31 03:00:13;;;;;;;23.20;12.00;;;;;;;11.44;100.00;100016.42;88473;274;137968;-76
2023/10/31 03:02:15;;;;;;;17.20;12.10;;;;;;;11.35;100.00;100000.30;88396;282;24136;-77
2023/10/31 03:04:17;;;;;;;17.20;11.40;;;;;;;11.44;100.00;100011.86;88268;279;138360;-75
2023/10/31 03:06:19;;;;;;;15.30;11.60;;;;;;;11.43;100.00;100010.48;88489;275;24167;-75
2023/10/31 03:08:21;;;;;;;23.10;12.80;;;;;;;11.41;100.00;100008.23;88178;279;137693;-77
2023/10/31 03:10:24;;;;;;;20.10;12.20;;;;;;;11.41;100.00;100012.05;89044;282;23752;-70
2023/10/31 03:12:28;;;;;;;21.00;14.40;;;;;;;11.42;100.00;100010.50;88274;281;137516;-78
2023/10/31 03:14:30;;;;;;;16.00;10.60;;;;;;;11.44;100.00;100006.95;88449;282;25328;-76
2023/10/31 03:16:32;;;;;;;15.90;12.00;;;;;;;11.38;100.00;99988.61;88340;274;137567;-77
2023/10/31 03:18:36;;;;;;;20.40;14.20;;;;;;;11.45;100.00;100008.41;88505;281;22526;-79
2023/10/31 03:20:39;;;;;;;19.60;12.70;;;;;;;11.45;100.00;100008.83;88319;282;137158;-73
2023/10/31 03:22:40;;;;;;;18.10;11.70;;;;;;;11.46;100.00;100012.60;88453;274;25328;-79
2023/10/31 03:24:42;;;;;;;17.90;12.60;;;;;;;11.45;100.00;100011.13;88387;274;137260;-76
2023/10/31 03:26:45;;;;;;;19.40;13.80;;;;;;;11.43;100.00;100008.58;88566;282;22621;-79
2023/10/31 03:28:48;;;;;;;19.20;13.90;;;;;;;11.42;100.00;100009.06;89005;282;138586;-76
2023/10/31 03:30:50;;;;;;;18.70;14.20;;;;;;;11.42;100.00;100006.94;89306;281;22540;-75
2023/10/31 03:32:52;;;;;;;24.70;14.00;;;;;;;11.42;100.00;100005.66;88724;281;137847;-78
2023/10/31 03:34:54;;;;;;;16.70;12.50;;;;;;;11.43;100.00;100003.19;88801;282;25162;-77
2023/10/31 03:36:56;;;;;;;21.10;14.20;;;;;;;11.43;100.00;100006.27;88498;281;137548;-76
2023/10/31 03:38:58;;;;;;;18.00;13.10;;;;;;;11.43;100.00;100009.65;88412;282;24053;-62
2023/10/31 03:41:01;;;;;;;20.10;14.00;;;;;;;11.41;100.00;100012.55;88484;278;137597;-79
2023/10/31 03:43:03;;;;;;;19.90;13.70;;;;;;;11.39;100.00;100009.05;88606;274;22537;-77
2023/10/31 03:45:06;;;;;;;21.20;13.20;;;;;;;11.38;100.00;100008.49;88462;273;137529;-78
2023/10/31 03:47:07;;;;;;;16.30;13.20;;;;;;;11.38;100.00;100009.19;88574;281;22627;-74
2023/10/31 03:49:10;;;;;;;20.30;13.00;;;;;;;11.38;100.00;100009.43;88446;281;138040;-78
2023/10/31 03:51:11;;;;;;;20.20;12.90;;;;;;;11.37;100.00;100011.06;88650;280;23790;-79
2023/10/31 03:53:13;;;;;;;22.30;12.50;;;;;;;11.36;100.00;100016.27;88833;281;137485;-78
2023/10/31 03:55:15;;;;;;;20.90;13.40;;;;;;;11.34;100.00;100019.84;88554;281;25163;-79
2023/10/31 03:57:17;;;;;;;17.00;12.50;;;;;;;11.33;100.00;100020.38;88579;280;139076;-77
2023/10/31 03:59:19;;;;;;;17.30;12.10;;;;;;;11.31;100.00;100024.22;88545;273;23722;-76
2023/10/31 04:01:22;;;;;;;18.80;12.20;;;;;;;11.31;100.00;100021.84;88660;280;137763;-80
2023/10/31 04:03:24;;;;;;;17.10;12.20;;;;;;;11.31;100.00;100022.35;88567;281;22550;-77
2023/10/31 04:05:26;;;;;;;19.20;13.40;;;;;;;11.31;100.00;100020.81;88400;275;137569;-75
2023/10/31 04:07:28;;;;;;;21.00;13.10;;;;;;;11.29;100.00;100019.13;88557;280;22540;-77
2023/10/31 04:09:29;;;;;;;20.40;13.30;;;;;;;11.26;100.00;100019.64;88470;281;138696;-76
2023/10/31 04:11:31;;;;;;;20.70;12.80;;;;;;;11.24;100.00;100019.15;88744;281;22527;-77
2023/10/31 04:13:33;;;;;;;19.10;13.60;;;;;;;11.21;100.00;100017.27;88620;281;137550;-79
2023/10/31 04:15:34;;;;;;;21.00;13.40;;;;;;;11.17;100.00;100014.66;88546;282;24170;-80
2023/10/31 04:17:38;;;;;;;22.60;14.50;;;;;;;11.16;100.00;100008.77;88499;281;137628;-77
2023/10/31 04:19:40;;;;;;;20.20;13.80;;;;;;;11.13;100.00;100008.08;88555;281;23830;-80
2023/10/31 04:21:42;;;;;;;22.10;13.80;;;;;;;11.12;100.00;100006.77;88508;277;137591;-74
2023/10/31 04:23:44;;;;;;;19.80;13.00;;;;;;;11.10;100.00;100002.65;88475;281;22548;-74
2023/10/31 04:25:46;;;;;;;21.90;13.60;;;;;;;11.09;100.00;100000.39;88408;274;137781;-78
2023/10/31 04:27:48;;;;;;;17.20;12.40;;;;;;;11.08;100.00;99997.56;88486;282;22776;-76
2023/10/31 04:29:50;;;;;;;23.80;13.30;;;;;;;11.09;100.00;99995.18;88558;281;137295;-69
2023/10/31 04:31:52;;;;;;;20.70;13.00;;;;;;;11.08;100.00;99994.42;88615;281;22533;-67
2023/10/31 04:33:53;;;;;;;18.00;12.20;;;;;;;11.07;100.00;100000.58;88439;281;137440;-68
2023/10/31 04:35:56;;;;;;;16.00;12.20;;;;;;;11.07;100.00;100000.83;88552;281;24041;-69
2023/10/31 04:37:58;;;;;;;18.20;13.50;;;;;;;11.07;100.00;100004.27;88478;281;137330;-66
2023/10/31 04:40:00;;;;;;;26.60;13.70;;;;;;;11.11;100.00;100004.55;88486;281;25192;-73
2023/10/31 04:42:02;;;;;;;19.00;13.20;;;;;;;11.12;100.00;100009.96;88670;282;137207;-82
2023/10/31 04:44:04;;;;;;;18.60;12.90;;;;;;;11.14;100.00;100012.21;88798;281;139096;-71
2023/10/31 04:46:05;;;;;;;21.20;14.60;;;;;;;11.15;100.00;100012.89;88691;282;22543;-72
2023/10/31 04:48:07;;;;;;;18.90;11.90;;;;;;;11.18;100.00;100012.98;88192;282;611148;-71
2023/10/31 04:50:09;;;;;;;19.50;13.10;;;;;;;11.18;100.00;100016.63;89015;282;24632;-72
2023/10/31 04:52:12;;;;;;;19.40;13.20;;;;;;;11.21;100.00;100015.91;88658;278;138116;-70
2023/10/31 04:54:14;;;;;;;19.60;13.90;;;;;;;11.20;100.00;100018.98;88935;281;22546;-70
2023/10/31 04:56:16;;;;;;;20.60;13.00;;;;;;;11.20;100.00;100015.85;88667;274;137446;-71
2023/10/31 04:58:18;;;;;;;18.20;12.30;;;;;;;11.21;100.00;100016.11;88704;282;22545;-71
2023/10/31 05:00:20;;;;;;;20.90;13.50;;;;;;;11.22;100.00;100020.35;88627;274;138716;-70
2023/10/31 05:02:22;;;;;;;17.50;12.50;;;;;;;11.23;100.00;100021.17;89226;275;22863;-69
2023/10/31 05:04:24;;;;;;;24.80;13.70;;;;;;;11.24;100.00;100020.27;89002;275;138294;-71
2023/10/31 05:06:26;;;;;;;23.60;14.50;;;;;;;11.26;100.00;100020.02;88820;273;23465;-70
2023/10/31 05:08:28;;;;;;;21.90;12.50;;;;;;;11.28;100.00;100022.45;88892;281;138682;-74
2023/10/31 05:10:30;;;;;;;19.30;12.70;;;;;;;11.31;100.00;100029.65;88408;278;25220;-79
2023/10/31 05:12:32;;;;;;;18.00;12.90;;;;;;;11.34;100.00;100030.20;88798;282;138326;-70
2023/10/31 05:14:35;;;;;;;20.20;12.50;;;;;;;11.35;100.00;100032.90;88313;278;25091;-74
2023/10/31 05:16:43;;;;;;;22.80;13.00;;;;;;;11.36;100.00;100030.89;88225;278;137493;-71
2023/10/31 05:18:45;;;;;;;22.00;13.30;;;;;;;11.34;100.00;100029.83;88819;277;24048;-74
2023/10/31 05:20:47;;;;;;;19.90;14.00;;;;;;;11.33;100.00;100023.42;88298;273;137594;-72
2023/10/31 05:22:49;;;;;;;19.90;13.30;;;;;;;11.31;100.00;100021.31;88464;281;22537;-75
2023/10/31 05:24:51;;;;;;;26.90;14.00;;;;;;;11.31;100.00;100022.63;88274;277;138756;-71
2023/10/31 05:26:53;;;;;;;19.10;14.10;;;;;;;11.31;100.00;100021.91;88381;278;22546;-72
2023/10/31 05:28:57;;;;;;;22.50;13.80;;;;;;;11.32;100.00;100023.48;88363;280;137515;-71
2023/10/31 05:30:58;;;;;;;18.80;13.20;;;;;;;11.33;100.00;100025.30;89136;280;22536;-73
2023/10/31 05:33:00;;;;;;;19.30;13.10;;;;;;;11.37;100.00;100027.66;88793;277;139500;-73
2023/10/31 05:35:02;;;;;;;25.90;14.60;;;;;;;11.40;100.00;100026.42;88451;277;24627;-68
2023/10/31 05:37:06;;;;;;;20.40;13.80;;;;;;;11.42;100.00;100027.69;89850;275;137667;-77
2023/10/31 05:39:08;;;;;;;21.80;13.70;;;;;;;11.45;100.00;100031.77;88361;282;24468;-74
2023/10/31 05:41:10;;;;;;;19.10;13.40;;;;;;;11.48;100.00;100037.15;88381;282;138710;-69
2023/10/31 05:43:12;;;;;;;20.40;13.30;;;;;;;11.51;100.00;100039.72;88307;278;24037;-73
2023/10/31 05:45:14;;;;;;;21.60;13.60;;;;;;;11.54;100.00;100039.02;88182;281;138982;-68
2023/10/31 05:47:15;;;;;;;23.30;13.60;;;;;;;11.57;100.00;100039.16;88369;274;22526;-65
2023/10/31 05:49:17;;;;;;;18.20;12.80;;;;;;;11.60;100.00;100039.61;88206;273;137477;-72
2023/10/31 05:51:19;;;;;;;20.70;12.70;;;;;;;11.60;100.00;100038.21;88362;273;24027;-69
2023/10/31 05:53:21;;;;;;;21.70;13.50;;;;;;;11.69;100.00;100042.02;88216;277;137836;-70
2023/10/31 05:55:22;;;;;;;27.00;12.70;;;;;;;11.73;100.00;100045.55;88200;275;24055;-66
2023/10/31 05:57:24;;;;;;;25.60;14.00;;;;;;;11.79;100.00;100042.32;88154;277;142367;-69
2023/10/31 05:59:26;;;;;;;23.30;13.80;;;;;;;11.83;100.00;100042.82;88269;274;22602;-67
2023/10/31 06:01:28;;;;;;;19.80;12.30;;;;;;;11.86;100.00;100041.83;88190;273;137453;-68
2023/10/31 06:03:31;;;;;;;25.50;13.30;;;;;;;11.90;100.00;100043.84;88302;274;22562;-67
2023/10/31 06:05:33;;;;;;;19.50;13.80;;;;;;;11.93;100.00;100037.75;88276;281;138138;-72
2023/10/31 06:07:35;;;;;;;18.90;12.10;;;;;;;11.91;100.00;100026.77;88581;278;24015;-72
2023/10/31 06:09:36;;;;;;;20.40;14.30;;;;;;;12.01;100.00;100036.86;88250;278;137578;-69
2023/10/31 06:11:42;;;;;;;22.00;12.80;;;;;;;12.04;100.00;100036.69;88378;273;25088;-68
2023/10/31 06:13:44;;;;;;;16.90;11.60;;;;;;;12.05;100.00;100037.77;88175;278;137614;-67
2023/10/31 06:15:46;;;;;;;22.00;12.90;;;;;;;12.06;100.00;100029.96;88369;281;24119;-69
2023/10/31 06:17:49;;;;;;;21.10;13.20;;;;;;;12.07;100.00;100032.21;88276;274;137298;-70
2023/10/31 06:19:52;;;;;;;19.60;13.80;;;;;;;12.08;100.00;100035.59;88347;274;24054;-71
2023/10/31 06:21:53;;;;;;;17.10;12.40;;;;;;;12.13;100.00;100036.66;88264;273;137435;-69
2023/10/31 06:23:55;;;;;;;19.00;13.40;;;;;;;12.18;100.00;100036.45;88838;278;22852;-76
2023/10/31 06:25:57;;;;;;;22.70;13.10;;;;;;;12.22;100.00;100039.70;89114;273;137124;-73
2023/10/31 06:27:58;;;;;;;20.80;11.80;;;;;;;12.26;100.00;100035.88;88943;277;25320;-75
2023/10/31 06:30:00;;;;;;;20.90;13.40;;;;;;;12.28;100.00;100033.06;89117;277;136973;-77
2023/10/31 06:32:21;;;;;;;18.30;12.00;;;;;;;12.31;100.00;100033.45;89141;277;139129;-79
2023/10/31 06:34:22;;;;;;;22.10;12.60;;;;;;;12.31;100.00;100028.05;89183;278;22533;-78
2023/10/31 06:36:24;;;;;;;21.30;12.70;;;;;;;12.30;100.00;100026.13;88919;281;138797;-74
2023/10/31 06:38:26;;;;;;;20.20;12.50;;;;;;;12.30;100.00;100027.39;89396;281;23161;-75
2023/10/31 06:40:27;;;;;;;22.50;12.00;;;;;;;12.29;100.00;100024.77;88836;280;137222;-77
2023/10/31 06:42:30;;;;;;;21.90;13.80;;;;;;;12.33;100.00;100026.77;88855;282;25076;-65
2023/10/31 06:44:32;;;;;;;22.70;12.10;;;;;;;12.37;100.00;100029.95;88615;274;137491;-69
2023/10/31 06:46:34;;;;;;;19.50;12.50;;;;;;;12.40;100.00;100027.02;88483;281;22532;-66
2023/10/31 06:48:36;;;;;;;19.60;12.30;;;;;;;12.43;100.00;100022.52;88456;274;138320;-65
2023/10/31 06:50:39;;;;;;;23.10;12.80;;;;;;;12.45;100.00;100022.08;88736;273;22541;-67
2023/10/31 06:52:41;;;;;;;19.90;13.10;;;;;;;12.47;100.00;100019.43;88530;273;137334;-71
2023/10/31 06:54:44;;;;;;;19.60;13.20;;;;;;;12.50;100.00;100020.51;88681;276;22805;-70
2023/10/31 06:56:46;;;;;;;17.20;11.90;;;;;;;12.53;100.00;100021.73;88859;277;137154;-67
2023/10/31 06:58:48;;;;;;;15.90;12.50;;;;;;;12.57;100.00;100019.09;88768;277;25162;-67
2023/10/31 07:00:50;;;;;;;21.60;14.10;;;;;;;12.59;100.00;100016.91;88361;273;137614;-73
2023/10/31 07:02:51;;;;;;;18.70;11.80;;;;;;;12.62;100.00;100014.92;88915;273;22533;-67
2023/10/31 07:04:53;;;;;;;15.00;11.80;;;;;;;12.67;100.00;100008.40;88261;274;138285;-63
2023/10/31 07:06:57;;;;;;;19.90;11.50;;;;;;;12.69;100.00;100006.13;88317;277;24889;-68
2023/10/31 07:09:04;;;;;;;15.70;10.70;;;;;;;12.76;100.00;100005.59;89153;274;139470;-67
2023/10/31 07:11:06;;;;;;;16.90;10.70;;;;;;;12.81;100.00;100002.69;88623;273;24261;-70
2023/10/31 07:13:08;;;;;;;14.70;10.40;;;;;;;12.88;100.00;100000.95;88832;274;137271;-72
2023/10/31 07:15:10;;;;;;;17.30;10.60;;;;;;;12.95;100.00;100002.31;88976;281;22543;-70
2023/10/31 07:17:11;;;;;;;14.80;11.10;;;;;;;13.02;100.00;99999.48;88698;281;139696;-77
2023/10/31 07:19:13;;;;;;;26.80;10.80;;;;;;;13.11;100.00;100000.06;89294;281;22535;-68
2023/10/31 07:21:15;;;;;;;16.30;10.80;;;;;;;13.18;100.00;100006.45;89104;281;138552;-70
2023/10/31 07:23:17;;;;;;;16.50;10.90;;;;;;;13.25;100.00;100012.67;88908;273;22526;-68
2023/10/31 07:25:19;;;;;;;21.70;10.50;;;;;;;13.28;100.00;100009.30;88852;273;138138;-68
2023/10/31 07:27:20;;;;;;;14.40;9.80;;;;;;;13.44;100.00;100017.09;88725;281;25175;-69
2023/10/31 07:29:22;;;;;;;15.50;10.50;;;;;;;13.51;100.00;100010.89;88354;273;137337;-71
2023/10/31 07:31:24;;;;;;;13.50;9.50;;;;;;;13.55;100.00;100014.34;88302;273;22562;-73
2023/10/31 07:33:26;;;;;;;17.00;11.70;;;;;;;13.56;100.00;100016.52;88800;275;138369;-70
2023/10/31 07:35:28;;;;;;;17.10;10.30;;;;;;;13.53;100.00;100009.73;88347;275;23252;-67
2023/10/31 07:37:29;;;;;;;12.70;9.10;;;;;;;13.51;100.00;100010.73;88313;274;138211;-73
2023/10/31 07:39:34;;;;;;;18.20;9.90;;;;;;;13.46;100.00;100005.79;89101;273;23163;-72
2023/10/31 07:41:35;;;;;;;18.00;9.50;;;;;;;13.40;100.00;99997.05;88837;273;137549;-69
2023/10/31 07:43:37;;;;;;;13.90;9.50;;;;;;;13.36;100.00;99995.79;89012;277;25087;-69
2023/10/31 07:45:39;;;;;;;17.60;10.60;;;;;;;13.36;100.00;99993.58;88841;274;137092;-72
2023/10/31 07:47:41;;;;;;;18.50;11.00;;;;;;;13.36;100.00;99993.16;88781;278;22520;-75
2023/10/31 07:49:43;;;;;;;15.80;9.40;;;;;;;13.39;100.00;99994.41;88708;275;137283;-67
2023/10/31 07:51:44;;;;;;;16.90;10.10;;;;;;;13.44;100.00;100002.30;88406;274;22534;-67
2023/10/31 07:53:46;;;;;;;17.70;9.40;;;;;;;13.49;100.00;100006.97;88124;282;137463;-69
2023/10/31 07:55:48;;;;;;;16.20;9.90;;;;;;;13.49;100.00;99996.16;89054;282;24137;-65
2023/10/31 07:57:50;;;;;;;15.60;9.70;;;;;;;13.63;100.00;100005.16;88600;274;136854;-72
2023/10/31 07:59:52;;;;;;;19.30;11.80;;;;;;;13.69;100.00;99998.60;88321;275;22627;-68
2023/10/31 08:01:54;;;;;;;16.00;10.50;;;;;;;13.75;100.00;99997.23;88758;274;137877;-69
2023/10/31 08:03:55;;;;;;;17.00;10.20;;;;;;;13.80;100.00;99997.33;88895;281;25166;-69
2023/10/31 08:05:57;;;;;;;22.40;10.30;;;;;;;13.89;100.00;100002.24;88763;274;137230;-69
2023/10/31 08:07:59;;;;;;;16.50;10.20;;;;;;;13.98;100.00;100002.54;89022;278;22606;-71
2023/10/31 08:10:01;;;;;;;13.30;8.80;;;;;;;14.06;100.00;99995.99;88671;278;137440;-68
2023/10/31 08:12:03;;;;;;;15.60;9.50;;;;;;;14.12;100.00;99989.92;88812;275;22589;-70
2023/10/31 08:14:05;;;;;;;14.60;8.50;;;;;;;14.20;100.00;99985.02;88910;274;25096;-67
2023/10/31 08:16:07;;;;;;;11.40;8.90;;;;;;;14.29;100.00;99980.56;88249;274;138109;-70
2023/10/31 08:18:09;;;;;;;14.00;8.40;;;;;;;14.32;100.00;99980.13;88782;274;25155;-82
2023/10/31 08:20:13;;;;;;;15.30;8.80;;;;;;;14.32;100.00;99985.21;88403;274;136498;-75
2023/10/31 08:22:15;;;;;;;11.40;8.10;;;;;;;14.31;100.00;99975.89;89073;282;23133;-73
2023/10/31 08:24:17;;;;;;;12.20;8.70;;;;;;;14.32;100.00;99970.27;88957;279;137211;-70
2023/10/31 08:26:19;;;;;;;11.90;8.50;;;;;;;14.34;100.00;99969.84;88585;274;22545;-64
2023/10/31 08:28:21;;;;;;;13.20;8.30;;;;;;;14.36;100.00;99962.27;88302;276;137147;-67
2023/10/31 08:30:22;;;;;;;12.80;7.70;;;;;;;14.35;100.00;99960.91;88390;273;22538;-68
2023/10/31 08:32:24;;;;;;;12.60;8.20;;;;;;;14.33;100.00;99959.52;88508;274;137914;-66
2023/10/31 08:34:26;;;;;;;19.00;8.60;;;;;;;14.32;100.00;99960.61;88468;274;22534;-72
2023/10/31 08:36:29;;;;;;;18.80;8.60;;;;;;;14.31;100.00;99954.90;88289;274;137571;-68
2023/10/31 08:38:31;;;;;;;11.70;9.00;;;;;;;14.30;100.00;99950.53;88720;274;22544;-70
2023/10/31 08:40:33;;;;;;;12.50;7.70;;;;;;;14.32;100.00;99946.02;88177;274;137000;-76
2023/10/31 08:42:35;;;;;;;10.80;8.00;;;;;;;14.35;100.00;99948.67;88288;282;22528;-70
2023/10/31 08:44:40;;;;;;;16.50;9.70;;;;;;;14.39;100.00;99948.70;88224;281;137343;-74
2023/10/31 08:46:42;;;;;;;12.20;8.50;;;;;;;14.45;100.00;99945.59;88514;281;25121;-83
2023/10/31 08:51:17;;;;;;;12.90;8.40;;;;;;;14.60;100.00;99940.50;87273;305;602943;-78
2023/10/31 08:53:19;;;;;;;17.90;10.10;;;;;;;14.71;100.00;99936.08;87552;285;135783;-74
2023/10/31 08:55:21;;;;;;;11.50;7.90;;;;;;;14.82;100.00;99934.29;88425;295;22631;-74
2023/10/31 08:57:22;;;;;;;19.00;9.10;;;;;;;14.94;100.00;99932.96;88139;287;135656;-83
2023/10/31 08:59:24;;;;;;;16.10;7.80;;;;;;;15.00;100.00;99916.14;88266;287;24084;-72
2023/10/31 09:01:27;;;;;;;18.30;9.30;;;;;;;15.14;100.00;99920.48;87535;287;135714;-70
2023/10/31 09:03:29;;;;;;;12.10;7.20;;;;;;;15.15;99.99;99905.59;87964;294;24049;-73
2023/10/31 09:05:32;;;;;;;13.10;7.20;;;;;;;15.26;99.92;99907.50;87544;286;583288;-72
2023/10/31 09:07:34;;;;;;;16.50;8.30;;;;;;;15.31;99.39;99906.64;87617;289;22579;-72
2023/10/31 09:09:38;;;;;;;11.50;7.90;;;;;;;15.37;99.58;99904.65;87672;292;135796;-71
2023/10/31 09:11:39;;;;;;;11.60;8.00;;;;;;;15.43;99.77;99903.93;87875;285;22538;-71
2023/10/31 09:13:41;;;;;;;14.00;8.80;;;;;;;15.50;99.38;99898.95;87843;282;135817;-73
2023/10/31 09:15:45;;;;;;;12.50;7.90;;;;;;;15.56;98.26;99894.17;87981;281;22547;-71
2023/10/31 09:17:47;;;;;;;13.50;8.00;;;;;;;15.63;98.18;99888.40;88001;282;135767;-68